Time;durP1;ratioP1;P1;durP2;ratioP2;P2;SDS_P1;SDS_P2;PMS_P1;PMS_P2;Temp;Humidity;BMP_temperature;BMP_pressure;BME280_temperature;BME280_humidity;BME280_pressure;Samples;Min_cycle;Max_cycle;Signal;HPM_P1;HPM_P2
2023/04/09 00:00:18;;;;;;;95.20;38.63;;;;;;;;;;6164639;23;20036;-91
2023/04/09 00:02:45;;;;;;;95.20;40.00;;;;;;;;;;6163465;23;20241;-90
2023/04/09 00:08:48;;;;;;;99.03;40.67;;;;;;;;;;6090392;23;20006;-91
2023/04/09 00:11:17;;;;;;;107.88;41.33;;;;;;;;;;6081632;23;20663;-91
2023/04/09 00:15:04;;;;;;;84.05;37.45;;;;;;;;;;6129128;23;20053;-91
2023/04/09 00:17:13;;;;;;;92.60;38.00;;;;;;;;;;6141572;22;20029;-91
2023/04/09 00:19:42;;;;;;;89.72;35.30;;;;;;;;;;6140058;23;20017;-91
2023/04/09 00:22:29;;;;;;;83.15;33.28;;;;;;;;;;6161045;23;20361;-92
2023/04/09 00:31:44;;;;;;;82.40;32.10;;;;;;;;;;5911774;24;20214;-91
2023/04/09 00:34:29;;;;;;;;;;;;;;;;;;;;;
2023/04/09 00:37:00;;;;;;;93.85;34.65;;;;;;;;;;5965979;24;20020;-91
2023/04/09 00:39:32;;;;;;;84.13;36.33;;;;;;;;;;5942388;24;20108;-90
2023/04/09 00:42:10;;;;;;;87.47;33.60;;;;;;;;;;5995140;23;20020;-91
2023/04/09 00:44:54;;;;;;;85.03;34.55;;;;;;;;;;6156488;23;20420;-93
2023/04/09 00:47:30;;;;;;;84.97;35.83;;;;;;;;;;6136584;23;20421;-92
2023/04/09 00:49:56;;;;;;;;;;;;;;;;;;6158547;23;20040;-91
2023/04/09 00:52:26;;;;;;;90.32;30.95;;;;;;;;;;6137288;23;19991;-91
2023/04/09 00:54:56;;;;;;;68.82;28.65;;;;;;;;;;6160750;23;20013;-91
2023/04/09 00:57:28;;;;;;;74.25;29.60;;;;;;;;;;6160081;23;20403;-91
2023/04/09 01:00:12;;;;;;;62.35;27.05;;;;;;;;;;6137762;23;20014;-90
2023/04/09 01:02:46;;;;;;;65.57;27.10;;;;;;;;;;6136893;23;20105;-90
2023/04/09 01:05:38;;;;;;;65.72;27.75;;;;;;;;;;6109954;23;20070;-90
2023/04/09 01:08:19;;;;;;;62.60;26.10;;;;;;;;;;6159992;23;20056;-91
2023/04/09 01:10:55;;;;;;;61.05;26.95;;;;;;;;;;6159977;23;20005;-91
2023/04/09 01:13:21;;;;;;;;;;;;;;;;;;6162961;23;20506;-91
2023/04/09 01:15:49;;;;;;;56.03;23.70;;;;;;;;;;6140769;23;19912;-90
2023/04/09 01:18:22;;;;;;;57.83;23.33;;;;;;;;;;6161142;23;20009;-90
2023/04/09 01:20:51;;;;;;;53.70;24.15;;;;;;;;;;6161312;23;20445;-92
2023/04/09 01:23:43;;;;;;;59.45;23.90;;;;;;;;;;6160798;23;20033;-91
2023/04/09 01:26:28;;;;;;;53.47;22.13;;;;;;;;;;6102183;23;20096;-90
2023/04/09 01:28:55;;;;;;;48.92;21.08;;;;;;;;;;6161274;23;20395;-91
2023/04/09 01:31:26;;;;;;;45.28;22.27;;;;;;;;;;6161183;23;20037;-90
2023/04/09 01:33:52;;;;;;;45.83;21.40;;;;;;;;;;6158922;23;20062;-92
2023/04/09 01:36:23;;;;;;;47.80;20.80;;;;;;;;;;6165230;23;20017;-91
2023/04/09 01:38:51;;;;;;;51.65;22.02;;;;;;;;;;6162777;23;20016;-91
2023/04/09 01:41:18;;;;;;;53.00;23.38;;;;;;;;;;6158673;23;20419;-91
2023/04/09 01:43:49;;;;;;;52.92;21.75;;;;;;;;;;6158906;23;20009;-92
2023/04/09 01:46:16;;;;;;;51.55;21.85;;;;;;;;;;6133890;23;20106;-92
2023/04/09 01:48:45;;;;;;;49.42;21.98;;;;;;;;;;6134970;23;20040;-91
2023/04/09 01:51:13;;;;;;;50.20;21.25;;;;;;;;;;6159927;23;20407;-90
2023/04/09 01:53:39;;;;;;;45.88;19.50;;;;;;;;;;6159357;23;20455;-91
2023/04/09 01:56:06;;;;;;;44.35;20.23;;;;;;;;;;6156615;23;20104;-91
2023/04/09 01:58:33;;;;;;;46.13;20.92;;;;;;;;;;6159826;23;20512;-90
2023/04/09 02:01:30;;;;;;;45.30;19.83;;;;;;;;;;6159312;23;20010;-91
2023/04/09 02:04:06;;;;;;;44.83;19.67;;;;;;;;;;6159895;23;20017;-91
2023/04/09 02:06:41;;;;;;;50.83;19.50;;;;;;;;;;6159329;23;20006;-91
2023/04/09 02:09:08;;;;;;;40.92;19.02;;;;;;;;;;6161013;23;20055;-91
2023/04/09 02:11:37;;;;;;;41.85;18.45;;;;;;;;;;6158914;23;20001;-92
2023/04/09 02:14:07;;;;;;;45.75;19.08;;;;;;;;;;6159271;23;20321;-91
2023/04/09 02:16:33;;;;;;;40.35;18.13;;;;;;;;;;6184275;22;20017;-91
2023/04/09 02:19:09;;;;;;;42.28;18.98;;;;;;;;;;6190658;23;20020;-91
2023/04/09 02:21:35;;;;;;;47.25;18.10;;;;;;;;;;6215806;23;20017;-91
2023/04/09 02:24:01;;;;;;;47.35;19.70;;;;;;;;;;6190108;23;20359;-92
2023/04/09 02:26:27;;;;;;;41.15;19.40;;;;;;;;;;6194044;23;20005;-92
2023/04/09 02:28:53;;;;;;;40.63;17.98;;;;;;;;;;6194584;23;20024;-91
2023/04/09 02:31:19;;;;;;;45.88;19.85;;;;;;;;;;6221147;23;20009;-91
2023/04/09 02:33:46;;;;;;;41.50;18.65;;;;;;;;;;6195567;23;20270;-91
2023/04/09 02:36:13;;;;;;;42.85;18.15;;;;;;;;;;6193458;23;20017;-91
2023/04/09 02:38:42;;;;;;;39.60;19.38;;;;;;;;;;6217297;23;20013;-91
2023/04/09 02:41:09;;;;;;;45.30;20.63;;;;;;;;;;6192806;23;20009;-91
2023/04/09 02:43:37;;;;;;;44.72;19.10;;;;;;;;;;6193963;23;20291;-91
2023/04/09 02:46:04;;;;;;;42.45;20.40;;;;;;;;;;6216019;23;20009;-92
2023/04/09 02:48:30;;;;;;;47.13;22.13;;;;;;;;;;6215864;23;20060;-92
2023/04/09 02:50:57;;;;;;;43.03;19.58;;;;;;;;;;6189999;23;20005;-91
2023/04/09 02:53:24;;;;;;;39.53;18.60;;;;;;;;;;6188651;23;20459;-92
2023/04/09 02:55:50;;;;;;;47.13;19.70;;;;;;;;;;6217094;23;20005;-92
2023/04/09 02:58:17;;;;;;;48.58;19.73;;;;;;;;;;6192720;23;20448;-91
2023/04/09 03:00:43;;;;;;;51.03;19.90;;;;;;;;;;6217461;23;20006;-92
2023/04/09 03:03:09;;;;;;;43.05;19.35;;;;;;;;;;6166083;23;20024;-92
2023/04/09 03:05:35;;;;;;;44.58;19.52;;;;;;;;;;6188307;23;20340;-92
2023/04/09 03:08:06;;;;;;;50.72;20.50;;;;;;;;;;6216084;23;20012;-91
2023/04/09 03:10:33;;;;;;;48.00;20.33;;;;;;;;;;6216784;23;20009;-92
2023/04/09 03:12:59;;;;;;;47.75;21.30;;;;;;;;;;6192302;23;20024;-92
2023/04/09 03:15:26;;;;;;;49.22;20.45;;;;;;;;;;6191023;23;20021;-92
2023/04/09 03:17:52;;;;;;;44.63;20.38;;;;;;;;;;6217290;22;20029;-91
2023/04/09 03:20:18;;;;;;;57.20;21.55;;;;;;;;;;6190464;23;20013;-91
2023/04/09 03:22:44;;;;;;;48.88;21.60;;;;;;;;;;6192193;23;20466;-91
2023/04/09 03:25:28;;;;;;;46.80;20.60;;;;;;;;;;6191706;23;20017;-92
2023/04/09 03:27:54;;;;;;;51.58;20.83;;;;;;;;;;6193266;23;20391;-91
2023/04/09 03:30:20;;;;;;;51.97;21.50;;;;;;;;;;6216824;23;20079;-91
2023/04/09 03:32:46;;;;;;;56.70;23.42;;;;;;;;;;6190926;23;20064;-92
2023/04/09 03:35:12;;;;;;;57.40;23.08;;;;;;;;;;6215111;23;20044;-91
2023/04/09 03:37:38;;;;;;;51.85;23.10;;;;;;;;;;6216186;23;20027;-90
2023/04/09 03:40:05;;;;;;;51.95;21.85;;;;;;;;;;6190900;23;20014;-91
2023/04/09 03:42:33;;;;;;;56.85;23.15;;;;;;;;;;6214607;23;20008;-91
2023/04/09 03:44:59;;;;;;;45.80;20.48;;;;;;;;;;6189338;23;20317;-91
2023/04/09 03:47:26;;;;;;;46.17;21.08;;;;;;;;;;6189432;23;20009;-91
2023/04/09 03:49:52;;;;;;;60.53;23.05;;;;;;;;;;6215426;23;20457;-91
2023/04/09 03:52:18;;;;;;;50.65;21.42;;;;;;;;;;6190941;23;20059;-91
2023/04/09 03:54:44;;;;;;;54.35;22.08;;;;;;;;;;6190108;23;20065;-91
2023/04/09 03:57:11;;;;;;;63.08;23.90;;;;;;;;;;6189882;23;20096;-91
2023/04/09 03:59:37;;;;;;;56.42;23.50;;;;;;;;;;6189406;23;20016;-90
2023/04/09 04:02:03;;;;;;;51.08;22.55;;;;;;;;;;6189429;23;20155;-90
2023/04/09 04:04:29;;;;;;;55.00;23.65;;;;;;;;;;6188992;23;20358;-90
2023/04/09 04:06:56;;;;;;;59.67;23.23;;;;;;;;;;6214478;23;19997;-90
2023/04/09 04:09:25;;;;;;;51.92;23.35;;;;;;;;;;6188332;23;20013;-90
2023/04/09 04:11:51;;;;;;;51.50;22.02;;;;;;;;;;6189961;23;20406;-90
2023/04/09 04:14:18;;;;;;;55.92;22.77;;;;;;;;;;6189913;23;20005;-90
2023/04/09 04:16:57;;;;;;;52.65;22.33;;;;;;;;;;6186209;23;20089;-90
2023/04/09 04:19:24;;;;;;;50.58;20.95;;;;;;;;;;6136290;23;20100;-92
2023/04/09 04:21:50;;;;;;;50.50;22.35;;;;;;;;;;6134137;23;20543;-91
2023/04/09 04:24:16;;;;;;;56.47;22.60;;;;;;;;;;6134785;23;20017;-90
2023/04/09 04:26:45;;;;;;;60.03;23.67;;;;;;;;;;6159329;23;20415;-90
2023/04/09 04:29:15;;;;;;;48.40;21.90;;;;;;;;;;6135658;23;20064;-91
2023/04/09 04:31:50;;;;;;;54.70;22.48;;;;;;;;;;6134030;23;20009;-90
2023/04/09 04:34:18;;;;;;;59.78;23.20;;;;;;;;;;6158574;23;20021;-90
2023/04/09 04:36:44;;;;;;;50.88;22.10;;;;;;;;;;6160097;23;20021;-91
2023/04/09 04:39:11;;;;;;;52.65;22.83;;;;;;;;;;6160451;23;20013;-90
2023/04/09 04:41:37;;;;;;;48.55;21.63;;;;;;;;;;6136287;23;20009;-91
2023/04/09 04:44:03;;;;;;;51.97;23.48;;;;;;;;;;6137040;23;20037;-91
2023/04/09 04:46:29;;;;;;;51.90;23.02;;;;;;;;;;6160779;23;19998;-90
2023/04/09 04:48:59;;;;;;;50.25;22.00;;;;;;;;;;6161913;23;20014;-91
2023/04/09 04:51:27;;;;;;;54.47;21.98;;;;;;;;;;6161827;23;20396;-90
2023/04/09 04:53:53;;;;;;;52.42;21.52;;;;;;;;;;6137580;23;20013;-91
2023/04/09 04:56:22;;;;;;;48.38;21.73;;;;;;;;;;6136857;23;20009;-92
2023/04/09 04:58:50;;;;;;;48.45;22.33;;;;;;;;;;6161029;23;20017;-91
2023/04/09 05:01:17;;;;;;;53.03;23.58;;;;;;;;;;6135545;23;20009;-90
2023/04/09 05:03:46;;;;;;;54.83;22.00;;;;;;;;;;6135192;23;20013;-90
2023/04/09 05:06:12;;;;;;;52.03;21.20;;;;;;;;;;6134441;23;20041;-90
2023/04/09 05:08:42;;;;;;;52.50;22.10;;;;;;;;;;6134838;23;20077;-90
2023/04/09 05:11:15;;;;;;;52.10;22.90;;;;;;;;;;6134824;23;20005;-90
2023/04/09 05:13:44;;;;;;;60.88;24.15;;;;;;;;;;6159081;23;20018;-90
2023/04/09 05:16:18;;;;;;;55.95;23.05;;;;;;;;;;6135376;23;20068;-90
2023/04/09 05:18:44;;;;;;;54.17;22.90;;;;;;;;;;6182216;23;20102;-91
2023/04/09 05:21:13;;;;;;;60.30;23.52;;;;;;;;;;6213053;23;20462;-91
2023/04/09 05:23:39;;;;;;;44.28;21.02;;;;;;;;;;6188963;23;20076;-90
2023/04/09 05:26:12;;;;;;;57.78;23.80;;;;;;;;;;6190469;23;20273;-91
2023/04/09 05:28:38;;;;;;;46.45;22.35;;;;;;;;;;6188987;23;20013;-90
2023/04/09 05:31:10;;;;;;;58.50;24.45;;;;;;;;;;6213953;23;20003;-90
2023/04/09 05:33:37;;;;;;;50.50;22.30;;;;;;;;;;6189852;23;20359;-91
2023/04/09 05:36:16;;;;;;;57.40;23.85;;;;;;;;;;6189304;23;20025;-91
2023/04/09 05:38:42;;;;;;;51.70;24.05;;;;;;;;;;6214813;23;20350;-91
2023/04/09 05:41:18;;;;;;;59.17;25.15;;;;;;;;;;6213490;23;20001;-92
2023/04/09 05:43:45;;;;;;;58.72;24.92;;;;;;;;;;6213124;23;20009;-91
2023/04/09 05:46:11;;;;;;;67.95;25.77;;;;;;;;;;6189815;23;20002;-91
2023/04/09 05:48:41;;;;;;;58.40;26.20;;;;;;;;;;6188335;23;20013;-90
2023/04/09 05:51:08;;;;;;;59.20;26.00;;;;;;;;;;6188708;23;20223;-90
2023/04/09 05:53:35;;;;;;;66.53;25.77;;;;;;;;;;6214072;23;20056;-91
2023/04/09 05:56:01;;;;;;;59.92;25.85;;;;;;;;;;6187458;23;20101;-90
2023/04/09 05:58:35;;;;;;;59.22;24.65;;;;;;;;;;6211332;23;20021;-91
2023/04/09 06:01:01;;;;;;;61.97;26.17;;;;;;;;;;6209904;23;20001;-91
2023/04/09 06:03:30;;;;;;;61.13;27.02;;;;;;;;;;6210346;23;20007;-91
2023/04/09 06:05:59;;;;;;;58.40;26.48;;;;;;;;;;6184208;23;20069;-91
2023/04/09 06:08:29;;;;;;;55.25;24.77;;;;;;;;;;6185166;23;20013;-91
2023/04/09 06:10:55;;;;;;;56.72;22.98;;;;;;;;;;6186323;23;20135;-91
2023/04/09 06:13:21;;;;;;;51.40;22.20;;;;;;;;;;6186636;23;20013;-91
2023/04/09 06:15:47;;;;;;;51.38;22.02;;;;;;;;;;6184512;23;20116;-90
2023/04/09 06:18:27;;;;;;;55.05;21.95;;;;;;;;;;6186612;23;20020;-90
2023/04/09 06:21:13;;;;;;;43.65;20.73;;;;;;;;;;6188555;23;20032;-91
2023/04/09 06:23:41;;;;;;;42.72;20.10;;;;;;;;;;6189612;23;20009;-91
2023/04/09 06:26:07;;;;;;;46.08;20.38;;;;;;;;;;6217621;23;20001;-91
2023/04/09 06:28:33;;;;;;;51.33;21.48;;;;;;;;;;6194391;23;20008;-91
2023/04/09 06:31:00;;;;;;;44.70;20.73;;;;;;;;;;6193846;23;20375;-91
2023/04/09 06:33:27;;;;;;;45.03;20.50;;;;;;;;;;6217820;23;20001;-91
2023/04/09 06:35:53;;;;;;;45.45;20.30;;;;;;;;;;6218320;23;20001;-91
2023/04/09 06:38:19;;;;;;;44.72;20.30;;;;;;;;;;6192559;23;20128;-90
2023/04/09 06:40:46;;;;;;;45.83;21.88;;;;;;;;;;6191317;23;20365;-91
2023/04/09 06:43:13;;;;;;;53.50;22.42;;;;;;;;;;6189634;23;20531;-90
2023/04/09 06:45:39;;;;;;;45.30;21.80;;;;;;;;;;6190119;23;20001;-91
2023/04/09 06:48:15;;;;;;;;;;;;;;;;;;;;;
2023/04/09 06:50:42;;;;;;;46.55;20.88;;;;;;;;;;6188691;23;20052;-92
2023/04/09 06:53:08;;;;;;;56.22;23.88;;;;;;;;;;6189755;23;20005;-93
2023/04/09 06:55:34;;;;;;;51.00;23.33;;;;;;;;;;6187233;23;20017;-91
2023/04/09 06:58:04;;;;;;;58.50;23.20;;;;;;;;;;6186701;23;20013;-90
2023/04/09 07:00:34;;;;;;;53.72;22.08;;;;;;;;;;6187049;23;20395;-91
2023/04/09 07:03:00;;;;;;;52.05;22.92;;;;;;;;;;6188499;23;20009;-91
2023/04/09 07:05:28;;;;;;;49.67;21.27;;;;;;;;;;6211687;23;20384;-89
2023/04/09 07:07:54;;;;;;;50.17;21.90;;;;;;;;;;6212672;23;20012;-91
2023/04/09 07:10:20;;;;;;;52.20;22.73;;;;;;;;;;6186388;23;20009;-91
2023/04/09 07:12:46;;;;;;;54.63;24.45;;;;;;;;;;6210746;23;20226;-91
2023/04/09 07:15:13;;;;;;;56.58;25.58;;;;;;;;;;6212774;23;20013;-91
2023/04/09 07:17:42;;;;;;;54.55;21.55;;;;;;;;;;6188466;23;20025;-92
2023/04/09 07:20:08;;;;;;;55.50;23.17;;;;;;;;;;6186345;23;20009;-89
2023/04/09 07:22:35;;;;;;;50.33;23.27;;;;;;;;;;6186874;23;20509;-91
2023/04/09 07:25:01;;;;;;;54.40;24.10;;;;;;;;;;6210955;23;20036;-90
2023/04/09 07:27:29;;;;;;;54.15;23.23;;;;;;;;;;6186722;23;20013;-91
2023/04/09 07:29:58;;;;;;;52.83;23.38;;;;;;;;;;6211540;23;20009;-91
2023/04/09 07:32:26;;;;;;;53.50;23.65;;;;;;;;;;6212349;23;20009;-91
2023/04/09 07:34:54;;;;;;;55.08;22.95;;;;;;;;;;6210825;23;20009;-93
2023/04/09 07:37:27;;;;;;;41.83;19.33;;;;;;;;;;6212125;23;20017;-90
2023/04/09 07:39:57;;;;;;;52.22;22.40;;;;;;;;;;6212229;23;20035;-91
2023/04/09 07:42:23;;;;;;;50.95;21.27;;;;;;;;;;6212259;23;20009;-89
2023/04/09 07:44:50;;;;;;;49.13;21.55;;;;;;;;;;6211052;23;20014;-91
2023/04/09 07:47:19;;;;;;;44.15;20.40;;;;;;;;;;6212212;23;20005;-91
2023/04/09 07:49:46;;;;;;;48.40;21.52;;;;;;;;;;6212555;23;20005;-91
2023/04/09 07:52:12;;;;;;;50.05;22.48;;;;;;;;;;6188889;23;20040;-91
2023/04/09 07:54:47;;;;;;;53.28;22.67;;;;;;;;;;6186074;23;20119;-91
2023/04/09 07:57:25;;;;;;;50.92;21.40;;;;;;;;;;6185823;23;20017;-91
2023/04/09 07:59:52;;;;;;;49.78;23.35;;;;;;;;;;6210210;23;20063;-92
2023/04/09 08:02:18;;;;;;;55.08;23.25;;;;;;;;;;6186519;23;20017;-91
2023/04/09 08:04:44;;;;;;;50.65;22.30;;;;;;;;;;6185210;23;20016;-90
2023/04/09 08:07:13;;;;;;;50.70;22.33;;;;;;;;;;6186764;23;20446;-90
2023/04/09 08:09:40;;;;;;;53.65;23.27;;;;;;;;;;6187083;23;20063;-91
2023/04/09 08:12:06;;;;;;;45.90;20.20;;;;;;;;;;6210606;23;20005;-91
2023/04/09 08:14:32;;;;;;;50.78;20.38;;;;;;;;;;6187018;23;20016;-92
2023/04/09 08:17:00;;;;;;;51.33;22.42;;;;;;;;;;6186144;23;20009;-91
2023/04/09 08:19:33;;;;;;;51.35;22.10;;;;;;;;;;6185969;23;20032;-92
2023/04/09 08:22:00;;;;;;;47.63;20.55;;;;;;;;;;6211448;23;20314;-91
2023/04/09 08:24:42;;;;;;;46.63;21.20;;;;;;;;;;6188913;23;20008;-91
2023/04/09 08:27:09;;;;;;;44.13;19.40;;;;;;;;;;6212296;23;20391;-91
2023/04/09 08:29:37;;;;;;;46.92;20.23;;;;;;;;;;6187230;23;20040;-92
2023/04/09 08:32:03;;;;;;;43.25;19.33;;;;;;;;;;6186698;23;20036;-92
2023/04/09 08:34:30;;;;;;;45.25;20.05;;;;;;;;;;6211949;23;20009;-92
2023/04/09 08:36:56;;;;;;;50.80;22.10;;;;;;;;;;6191395;23;20175;-92
2023/04/09 08:39:26;;;;;;;46.08;20.20;;;;;;;;;;6185344;23;20009;-90
2023/04/09 08:41:53;;;;;;;54.50;23.08;;;;;;;;;;6185655;23;20021;-91
2023/04/09 08:44:20;;;;;;;48.63;20.35;;;;;;;;;;6210541;23;20092;-92
2023/04/09 08:46:47;;;;;;;48.80;20.42;;;;;;;;;;6184613;23;20013;-92
2023/04/09 08:49:13;;;;;;;44.97;20.05;;;;;;;;;;6185614;23;20011;-92
2023/04/09 08:51:39;;;;;;;49.35;20.02;;;;;;;;;;6186208;23;20010;-92
2023/04/09 08:54:06;;;;;;;43.25;20.52;;;;;;;;;;6211678;23;20048;-93
2023/04/09 08:56:32;;;;;;;42.58;21.80;;;;;;;;;;6185829;23;20013;-92
2023/04/09 08:58:59;;;;;;;42.15;20.90;;;;;;;;;;6214451;23;20367;-90
2023/04/09 09:01:25;;;;;;;43.17;19.70;;;;;;;;;;6212694;23;20015;-92
2023/04/09 09:04:04;;;;;;;43.60;19.70;;;;;;;;;;6212123;23;20005;-92
2023/04/09 09:06:32;;;;;;;42.38;18.85;;;;;;;;;;6188419;23;20016;-92
2023/04/09 09:09:09;;;;;;;48.58;19.23;;;;;;;;;;6212066;23;20009;-92
2023/04/09 09:11:42;;;;;;;36.90;19.80;;;;;;;;;;6212702;23;20025;-92
2023/04/09 09:14:09;;;;;;;40.83;19.55;;;;;;;;;;6212957;23;20016;-91
2023/04/09 09:16:41;;;;;;;42.33;18.30;;;;;;;;;;6189273;23;20036;-92
2023/04/09 09:19:18;;;;;;;43.35;18.17;;;;;;;;;;6214728;22;20020;-92
2023/04/09 09:22:07;;;;;;;42.67;19.23;;;;;;;;;;6213135;23;20020;-91
2023/04/09 09:24:33;;;;;;;42.92;19.20;;;;;;;;;;6208985;23;20013;-91
2023/04/09 09:27:01;;;;;;;35.00;18.35;;;;;;;;;;6212250;23;20048;-91
2023/04/09 09:29:27;;;;;;;39.55;18.00;;;;;;;;;;6187284;23;20036;-91
2023/04/09 09:31:54;;;;;;;37.67;18.50;;;;;;;;;;6212917;23;20072;-92
2023/04/09 09:34:24;;;;;;;39.72;17.48;;;;;;;;;;6213454;23;20040;-91
2023/04/09 09:36:50;;;;;;;40.25;19.85;;;;;;;;;;6187706;23;20009;-92
2023/04/09 09:39:17;;;;;;;37.05;18.38;;;;;;;;;;6211493;23;20435;-91
2023/04/09 09:41:44;;;;;;;43.58;20.30;;;;;;;;;;6212190;23;20023;-92
2023/04/09 09:44:11;;;;;;;38.05;18.92;;;;;;;;;;6214297;23;20016;-92
2023/04/09 09:46:39;;;;;;;41.90;19.00;;;;;;;;;;6214973;23;20495;-91
2023/04/09 09:49:05;;;;;;;40.88;19.15;;;;;;;;;;6191535;23;20016;-91
2023/04/09 09:51:32;;;;;;;37.67;18.40;;;;;;;;;;6190318;23;20205;-90
2023/04/09 09:53:59;;;;;;;39.55;17.98;;;;;;;;;;6213795;23;20013;-92
2023/04/09 09:56:31;;;;;;;39.75;20.15;;;;;;;;;;6212008;23;20008;-92
2023/04/09 09:59:04;;;;;;;39.63;20.17;;;;;;;;;;6214957;23;20327;-92
2023/04/09 10:01:40;;;;;;;46.88;20.17;;;;;;;;;;6217395;23;20063;-93
2023/04/09 10:04:06;;;;;;;;;;;;;;;;;;6196999;23;20013;-93
2023/04/09 10:06:37;;;;;;;40.17;18.48;;;;;;;;;;6193363;23;19947;-93
2023/04/09 10:09:14;;;;;;;39.97;19.92;;;;;;;;;;6219223;23;20009;-96
2023/04/09 10:11:42;;;;;;;38.35;18.83;;;;;;;;;;6216811;22;20042;-91
2023/04/09 10:14:09;;;;;;;40.97;19.48;;;;;;;;;;6192066;23;20005;-89
2023/04/09 10:16:36;;;;;;;43.75;20.35;;;;;;;;;;6192182;23;20005;-91
2023/04/09 10:19:02;;;;;;;38.30;21.50;;;;;;;;;;6190467;23;20035;-90
2023/04/09 10:21:40;;;;;;;44.80;21.67;;;;;;;;;;6215893;23;20028;-90
2023/04/09 10:24:08;;;;;;;41.15;20.63;;;;;;;;;;6217410;23;20008;-91
2023/04/09 10:26:35;;;;;;;38.08;19.40;;;;;;;;;;6194020;23;20012;-92
2023/04/09 10:29:10;;;;;;;39.15;20.67;;;;;;;;;;6193446;23;20009;-90
2023/04/09 10:31:51;;;;;;;41.33;20.73;;;;;;;;;;6219386;23;20465;-91
2023/04/09 10:34:18;;;;;;;38.05;19.02;;;;;;;;;;6216354;23;20354;-91
2023/04/09 10:36:51;;;;;;;41.03;20.23;;;;;;;;;;6218811;23;20528;-91
2023/04/09 10:39:18;;;;;;;40.00;20.52;;;;;;;;;;6194310;23;20036;-91
2023/04/09 10:41:44;;;;;;;39.83;20.13;;;;;;;;;;6191043;23;20012;-90
2023/04/09 10:44:21;;;;;;;41.83;20.92;;;;;;;;;;6189308;23;20012;-89
2023/04/09 10:46:47;;;;;;;39.17;21.13;;;;;;;;;;6211472;23;20014;-90
2023/04/09 10:49:24;;;;;;;43.58;23.33;;;;;;;;;;6216897;23;20015;-91
2023/04/09 10:51:54;;;;;;;40.47;20.63;;;;;;;;;;6217479;23;20013;-90
2023/04/09 10:54:33;;;;;;;34.28;19.00;;;;;;;;;;6211821;23;20403;-90
2023/04/09 10:57:15;;;;;;;37.47;20.55;;;;;;;;;;6216697;23;20013;-91
2023/04/09 11:00:24;;;;;;;37.80;20.80;;;;;;;;;;6215119;23;20004;-92
2023/04/09 11:03:24;;;;;;;39.75;21.35;;;;;;;;;;6207073;23;20020;-91
2023/04/09 11:05:54;;;;;;;33.35;19.08;;;;;;;;;;6214780;23;20450;-91
2023/04/09 11:08:29;;;;;;;35.45;20.33;;;;;;;;;;6213769;23;20015;-91
2023/04/09 11:10:57;;;;;;;37.80;19.90;;;;;;;;;;6216643;22;20032;-90
2023/04/09 11:13:27;;;;;;;35.95;20.15;;;;;;;;;;6189004;23;20346;-91
2023/04/09 11:15:58;;;;;;;44.72;20.65;;;;;;;;;;6190075;23;20420;-90
2023/04/09 11:18:26;;;;;;;42.55;21.27;;;;;;;;;;6213430;23;20011;-91
2023/04/09 11:20:59;;;;;;;36.65;18.88;;;;;;;;;;6214658;23;20005;-91
2023/04/09 11:23:29;;;;;;;35.28;19.25;;;;;;;;;;6212940;23;20017;-92
2023/04/09 11:26:10;;;;;;;34.38;19.83;;;;;;;;;;6215049;23;20059;-91
2023/04/09 11:28:45;;;;;;;33.03;18.02;;;;;;;;;;6214140;23;20060;-91
2023/04/09 11:31:12;;;;;;;30.10;17.60;;;;;;;;;;6211724;23;20001;-92
2023/04/09 11:33:38;;;;;;;29.67;17.50;;;;;;;;;;6188841;23;20019;-91
2023/04/09 11:36:23;;;;;;;33.80;18.73;;;;;;;;;;6194075;23;20007;-91
2023/04/09 11:38:49;;;;;;;31.65;16.83;;;;;;;;;;6214278;23;20027;-91
2023/04/09 11:41:35;;;;;;;28.85;18.33;;;;;;;;;;6186733;23;20012;-90
2023/04/09 11:44:04;;;;;;;31.05;16.58;;;;;;;;;;6212786;23;20000;-91
2023/04/09 11:46:35;;;;;;;30.95;18.58;;;;;;;;;;6215723;23;20005;-90
2023/04/09 11:49:01;;;;;;;33.58;18.30;;;;;;;;;;6213962;23;20085;-91
2023/04/09 11:51:31;;;;;;;33.38;19.00;;;;;;;;;;6188303;23;20119;-91
2023/04/09 11:54:04;;;;;;;31.42;19.33;;;;;;;;;;6214574;23;20020;-90
2023/04/09 11:56:34;;;;;;;32.92;18.38;;;;;;;;;;6211372;23;20505;-91
2023/04/09 11:59:11;;;;;;;34.08;18.45;;;;;;;;;;6211974;23;20008;-91
2023/04/09 12:01:42;;;;;;;29.70;18.13;;;;;;;;;;6188010;23;20099;-91
2023/04/09 12:04:11;;;;;;;35.13;18.88;;;;;;;;;;6189677;23;20435;-91
2023/04/09 12:06:42;;;;;;;32.03;17.55;;;;;;;;;;6189245;23;20021;-91
2023/04/09 12:09:12;;;;;;;25.25;16.55;;;;;;;;;;6189840;23;20012;-91
2023/04/09 12:11:45;;;;;;;31.13;16.80;;;;;;;;;;6190629;22;20023;-92
2023/04/09 12:19:54;;;;;;;27.57;16.70;;;;;;;;;;6213893;23;20028;-91
2023/04/09 12:22:22;;;;;;;27.15;16.40;;;;;;;;;;6210288;23;20012;-90
2023/04/09 12:24:54;;;;;;;28.45;17.83;;;;;;;;;;6187773;23;20099;-91
2023/04/09 12:27:32;;;;;;;26.70;16.15;;;;;;;;;;6185775;23;20439;-92
2023/04/09 12:29:59;;;;;;;26.17;15.05;;;;;;;;;;6211589;23;20004;-91
2023/04/09 12:32:29;;;;;;;19.95;12.48;;;;;;;;;;6191140;23;20013;-90
2023/04/09 12:34:55;;;;;;;26.80;15.48;;;;;;;;;;6185579;23;20060;-90
2023/04/09 12:37:29;;;;;;;26.85;16.23;;;;;;;;;;6188539;23;20012;-91
2023/04/09 12:39:56;;;;;;;25.17;15.52;;;;;;;;;;6213332;23;20445;-89
2023/04/09 12:42:22;;;;;;;25.98;15.60;;;;;;;;;;6212994;23;20009;-89
2023/04/09 12:44:49;;;;;;;28.02;15.82;;;;;;;;;;6187120;23;20439;-91
2023/04/09 12:47:19;;;;;;;25.13;15.50;;;;;;;;;;6186865;23;20215;-91
2023/04/09 12:49:45;;;;;;;27.88;17.58;;;;;;;;;;6186194;23;20095;-90
2023/04/09 12:52:19;;;;;;;23.48;14.85;;;;;;;;;;6211157;23;20000;-89
2023/04/09 12:54:45;;;;;;;27.23;16.58;;;;;;;;;;6190639;23;20040;-90
2023/04/09 12:57:11;;;;;;;24.73;15.48;;;;;;;;;;6185708;23;20465;-90
2023/04/09 12:59:38;;;;;;;22.38;14.27;;;;;;;;;;6183281;23;20075;-90
2023/04/09 13:02:04;;;;;;;22.58;14.82;;;;;;;;;;6185223;23;20016;-90
2023/04/09 13:04:31;;;;;;;21.35;14.70;;;;;;;;;;6207924;23;20441;-90
2023/04/09 13:06:57;;;;;;;23.27;14.52;;;;;;;;;;6183624;23;20004;-90
2023/04/09 13:09:25;;;;;;;24.55;13.75;;;;;;;;;;6185447;23;20008;-91
2023/04/09 13:11:51;;;;;;;21.92;14.55;;;;;;;;;;6214460;22;20028;-92
2023/04/09 13:14:31;;;;;;;23.83;14.38;;;;;;;;;;6211080;22;20044;-91
2023/04/09 13:17:16;;;;;;;19.00;12.48;;;;;;;;;;6157972;23;20498;-91
2023/04/09 13:19:43;;;;;;;21.70;13.55;;;;;;;;;;6157369;23;20501;-91
2023/04/09 13:22:25;;;;;;;19.73;12.60;;;;;;;;;;6154943;23;20013;-92
2023/04/09 13:24:52;;;;;;;23.20;14.18;;;;;;;;;;6157989;23;20017;-92
2023/04/09 13:27:20;;;;;;;21.95;14.35;;;;;;;;;;6153714;23;20020;-92
2023/04/09 13:29:47;;;;;;;19.80;12.73;;;;;;;;;;6154340;23;20005;-92
2023/04/09 13:32:13;;;;;;;23.77;14.70;;;;;;;;;;6160961;23;20309;-90
2023/04/09 13:34:39;;;;;;;21.98;13.73;;;;;;;;;;6158411;23;20065;-91
2023/04/09 13:37:05;;;;;;;22.00;13.63;;;;;;;;;;6159755;23;20005;-92
2023/04/09 13:39:31;;;;;;;20.83;13.90;;;;;;;;;;6160445;23;20436;-92
2023/04/09 13:42:00;;;;;;;24.23;14.95;;;;;;;;;;6165090;23;20015;-93
2023/04/09 13:44:27;;;;;;;26.80;14.32;;;;;;;;;;6160161;23;20100;-92
2023/04/09 13:46:54;;;;;;;23.25;13.85;;;;;;;;;;6158668;23;20506;-92
2023/04/09 13:49:24;;;;;;;24.92;15.52;;;;;;;;;;6155491;23;20005;-92
2023/04/09 13:52:11;;;;;;;25.33;15.02;;;;;;;;;;6154830;23;20071;-90
2023/04/09 13:54:40;;;;;;;21.00;14.20;;;;;;;;;;6151951;23;20013;-89
2023/04/09 13:57:09;;;;;;;23.30;14.18;;;;;;;;;;6154628;23;20005;-91
2023/04/09 13:59:37;;;;;;;21.63;12.75;;;;;;;;;;6156607;23;20013;-91
2023/04/09 14:02:05;;;;;;;21.45;12.90;;;;;;;;;;6156836;23;20100;-92
2023/04/09 14:04:38;;;;;;;18.73;10.98;;;;;;;;;;6155191;23;20020;-94
2023/04/09 14:07:07;;;;;;;19.40;11.82;;;;;;;;;;6156414;23;20100;-95
2023/04/09 14:09:36;;;;;;;23.13;12.70;;;;;;;;;;6153878;23;20077;-92
2023/04/09 14:12:04;;;;;;;19.45;12.10;;;;;;;;;;6158835;23;20001;-93
2023/04/09 14:14:31;;;;;;;22.42;14.77;;;;;;;;;;6161453;22;20013;-94
2023/04/09 14:17:32;;;;;;;23.92;13.25;;;;;;;;;;6198356;23;20029;-95
2023/04/09 14:22:48;;;;;;;21.15;12.93;;;;;;;;;;6177557;23;20017;-93
2023/04/09 14:25:14;;;;;;;20.60;11.65;;;;;;;;;;6184650;23;20017;-92
2023/04/09 14:27:41;;;;;;;18.00;11.63;;;;;;;;;;6190437;23;20347;-92
2023/04/09 14:30:09;;;;;;;17.70;11.52;;;;;;;;;;6192667;23;20071;-94
2023/04/09 14:32:35;;;;;;;22.23;13.45;;;;;;;;;;6214771;23;20005;-93
2023/04/09 14:35:20;;;;;;;19.83;12.45;;;;;;;;;;6216711;23;20100;-93
2023/04/09 14:37:49;;;;;;;19.63;11.45;;;;;;;;;;6215423;23;20430;-92
2023/04/09 14:40:20;;;;;;;17.88;11.73;;;;;;;;;;6188021;23;20072;-92
2023/04/09 14:42:50;;;;;;;18.48;11.75;;;;;;;;;;6193974;23;20036;-93
2023/04/09 14:45:16;;;;;;;17.92;11.77;;;;;;;;;;6194462;23;20017;-93
2023/04/09 14:47:43;;;;;;;19.95;12.15;;;;;;;;;;6195228;23;20024;-94
2023/04/09 14:50:20;;;;;;;15.82;10.65;;;;;;;;;;6210612;23;20024;-93
2023/04/09 14:52:47;;;;;;;19.35;12.35;;;;;;;;;;6224145;23;20009;-95
2023/04/09 14:55:18;;;;;;;16.88;11.50;;;;;;;;;;6231653;23;20011;-94